Time;durP1;ratioP1;P1;durP2;ratioP2;P2;SDS_P1;SDS_P2;PMS_P1;PMS_P2;Temp;Humidity;BMP_temperature;BMP_pressure;BME280_temperature;BME280_humidity;BME280_pressure;Samples;Min_cycle;Max_cycle;Signal;HPM_P1;HPM_P2
2021/12/25 00:01:42;;;;;;;4.07;1.17;;;;;;;-2.31;100.00;-19106.72;5041521;28;20032;-68
2021/12/25 00:04:08;;;;;;;1.30;0.83;;;;;;;-2.34;100.00;-19105.81;5033714;28;20391;-68
2021/12/25 00:06:35;;;;;;;4.17;1.90;;;;;;;-2.49;100.00;-19102.06;5041665;28;20036;-68
2021/12/25 00:09:01;;;;;;;1.77;0.80;;;;;;;-2.54;100.00;-19100.75;5031000;28;20071;-68
2021/12/25 00:11:26;;;;;;;2.53;0.97;;;;;;;-2.59;100.00;-19099.41;5042037;28;20349;-68
2021/12/25 00:13:52;;;;;;;2.93;1.10;;;;;;;-2.60;100.00;-19099.00;5031851;28;20775;-68
2021/12/25 00:16:17;;;;;;;2.77;0.80;;;;;;;-2.66;100.00;-19097.53;5042044;28;20105;-67
2021/12/25 00:18:42;;;;;;;1.50;0.80;;;;;;;-2.67;100.00;-19097.25;5040921;28;20040;-68
2021/12/25 00:21:09;;;;;;;2.13;1.20;;;;;;;-2.73;100.00;-19095.66;5041694;28;20021;-68
2021/12/25 00:23:35;;;;;;;2.40;1.23;;;;;;;-2.81;100.00;-19093.53;5034764;28;20035;-68
2021/12/25 00:26:10;;;;;;;2.30;1.00;;;;;;;-2.88;100.00;-19091.66;5034199;28;20917;-68
2021/12/25 00:36:01;;;;;;;1.13;0.60;;;;;;;-2.97;100.00;-19089.53;5041308;28;20562;-68
2021/12/25 00:38:26;;;;;;;2.93;0.80;;;;;;;-2.98;100.00;-19089.25;5040448;28;20639;-68
2021/12/25 00:40:52;;;;;;;1.37;0.80;;;;;;;-3.07;100.00;-19086.72;5040893;28;20267;-68
2021/12/25 00:43:17;;;;;;;3.23;0.87;;;;;;;-3.14;100.00;-19084.88;5038453;28;20025;-68
2021/12/25 00:45:42;;;;;;;2.83;0.67;;;;;;;-3.21;100.00;-19083.13;5043224;28;20025;-68
2021/12/25 00:48:08;;;;;;;1.93;0.77;;;;;;;-3.22;100.00;-19082.72;5053834;28;20047;-68
2021/12/25 00:50:34;;;;;;;1.17;0.70;;;;;;;-3.23;100.00;-19082.47;5050583;28;20111;-68
2021/12/25 00:52:59;;;;;;;1.40;0.90;;;;;;;-3.26;100.00;-19081.78;5042795;28;20071;-68
2021/12/25 00:55:25;;;;;;;4.80;1.07;;;;;;;-3.28;100.00;-19081.38;5040613;28;20051;-68
2021/12/25 00:57:51;;;;;;;1.40;0.70;;;;;;;-3.29;100.00;-19081.00;5050419;28;20493;-68
2021/12/25 01:00:17;;;;;;;1.10;0.90;;;;;;;-3.31;100.00;-19080.47;5053689;28;20273;-68
2021/12/25 01:02:44;;;;;;;0.90;0.60;;;;;;;-3.34;100.00;-19079.66;5045409;28;20048;-68
2021/12/25 01:05:11;;;;;;;1.07;0.73;;;;;;;-3.39;100.00;-19078.31;5047544;28;20028;-68
2021/12/25 01:07:37;;;;;;;3.80;0.80;;;;;;;-3.43;100.00;-19077.38;5043631;28;20267;-68
2021/12/25 01:10:07;;;;;;;1.07;0.93;;;;;;;-3.42;100.00;-19077.53;5043278;28;21016;-68
2021/12/25 01:12:44;;;;;;;2.73;1.00;;;;;;;-3.49;100.00;-19075.66;5046302;28;20028;-68
2021/12/25 01:15:10;;;;;;;3.50;1.63;;;;;;;-3.58;100.00;-19073.50;5040337;28;20325;-68
2021/12/25 01:18:07;;;;;;;2.37;0.70;;;;;;;-3.58;100.00;-19073.50;5037252;28;20334;-68
2021/12/25 01:23:26;;;;;;;3.33;0.73;;;;;;;-3.60;100.00;-19072.97;5042768;28;20310;-68
2021/12/25 01:31:09;;;;;;;1.85;1.00;;;;;;;-3.63;100.00;-19072.19;5049445;28;20316;-68
2021/12/25 01:39:12;;;;;;;0.87;0.70;;;;;;;-3.74;100.00;-19069.25;5005821;28;20284;-68
2021/12/25 01:49:34;;;;;;;0.73;0.60;;;;;;;-3.83;100.00;-19066.84;4998964;28;20801;-68
2021/12/25 01:52:00;;;;;;;1.27;0.90;;;;;;;-3.80;100.00;-19067.63;5002051;28;20766;-68
2021/12/25 01:54:26;;;;;;;0.93;0.80;;;;;;;-3.82;100.00;-19067.09;4998447;28;20041;-68
2021/12/25 01:56:51;;;;;;;2.03;1.53;;;;;;;-3.90;100.00;-19064.97;4997702;28;20359;-68
2021/12/25 01:59:17;;;;;;;2.30;0.83;;;;;;;-3.91;100.00;-19064.69;4996720;28;20145;-68
2021/12/25 02:01:42;;;;;;;1.23;0.83;;;;;;;-3.99;100.00;-19062.69;4997177;28;20498;-67
2021/12/25 02:04:08;;;;;;;1.00;0.70;;;;;;;-3.99;100.00;-19062.69;5030001;22;20338;-65
2021/12/25 02:06:34;;;;;;;1.33;0.80;;;;;;;-4.03;100.00;-19061.50;5053603;28;20020;-65
2021/12/25 02:09:05;;;;;;;3.17;1.10;;;;;;;-4.01;100.00;-19062.16;5060162;28;20484;-66
2021/12/25 02:11:32;;;;;;;2.00;0.80;;;;;;;-4.07;100.00;-19060.44;5047914;28;20275;-66
2021/12/25 02:13:58;;;;;;;0.83;0.80;;;;;;;-4.05;100.00;-19060.97;5049375;28;20554;-66
2021/12/25 02:16:29;;;;;;;1.23;0.77;;;;;;;-4.08;100.00;-19060.28;5057409;28;20287;-65
2021/12/25 02:21:25;;;;;;;2.63;0.90;;;;;;;-4.14;100.00;-19058.81;5060419;28;20282;-66
2021/12/25 02:23:51;;;;;;;0.97;0.70;;;;;;;-4.19;100.00;-19057.50;5065867;28;20489;-66
2021/12/25 02:26:21;;;;;;;1.93;1.13;;;;;;;-4.23;100.00;-19056.44;5068242;28;20263;-66
2021/12/25 02:28:47;;;;;;;1.70;0.70;;;;;;;-4.20;100.00;-19057.22;5067619;28;20361;-66
2021/12/25 02:31:14;;;;;;;0.70;0.60;;;;;;;-4.28;100.00;-19055.09;5063181;28;20373;-66
2021/12/25 02:33:40;;;;;;;0.87;0.80;;;;;;;-4.28;100.00;-19055.09;5059462;28;20472;-66
2021/12/25 02:36:08;;;;;;;0.93;0.70;;;;;;;-4.28;100.00;-19055.09;5062420;28;20291;-65
2021/12/25 02:38:35;;;;;;;2.00;0.80;;;;;;;-4.23;100.00;-19056.44;5061727;28;20772;-66
2021/12/25 02:41:00;;;;;;;1.77;0.90;;;;;;;-4.26;100.00;-19055.50;5061760;28;20294;-66
2021/12/25 02:43:26;;;;;;;1.30;0.90;;;;;;;-4.27;100.00;-19055.22;5060464;28;20286;-66
2021/12/25 02:45:54;;;;;;;1.60;0.80;;;;;;;-4.32;100.00;-19054.03;5061030;28;20482;-65
2021/12/25 02:48:20;;;;;;;3.40;0.90;;;;;;;-4.31;100.00;-19054.28;5061199;28;20124;-66
2021/12/25 02:50:46;;;;;;;1.53;0.90;;;;;;;-4.28;100.00;-19054.94;5062188;28;20339;-65
2021/12/25 02:53:13;;;;;;;1.37;1.00;;;;;;;-4.32;100.00;-19054.03;5059658;28;20350;-66
2021/12/25 02:55:40;;;;;;;1.40;1.00;;;;;;;-4.32;100.00;-19054.03;5060661;28;20279;-66
2021/12/25 02:58:06;;;;;;;4.20;0.77;;;;;;;-4.36;100.00;-19052.81;5063163;28;20278;-66
2021/12/25 03:00:37;;;;;;;1.70;1.13;;;;;;;-4.37;100.00;-19052.69;5064433;28;20281;-65
2021/12/25 03:03:04;;;;;;;0.90;0.80;;;;;;;-4.34;100.00;-19053.50;5065222;28;20029;-65
2021/12/25 03:05:30;;;;;;;1.30;0.90;;;;;;;-4.37;100.00;-19052.53;5041103;28;20375;-65
2021/12/25 03:07:55;;;;;;;4.37;0.70;;;;;;;-4.39;100.00;-19052.00;5036583;28;20777;-65
2021/12/25 03:10:21;;;;;;;1.67;0.70;;;;;;;-4.36;100.00;-19052.94;5047268;28;20280;-65
2021/12/25 03:13:17;;;;;;;0.63;0.63;;;;;;;-4.37;100.00;-19052.53;5047379;28;20354;-66
2021/12/25 03:15:46;;;;;;;1.07;0.80;;;;;;;-4.41;100.00;-19051.63;5049867;28;20145;-65
2021/12/25 03:18:13;;;;;;;0.70;0.70;;;;;;;-4.42;100.00;-19051.34;5039879;28;20282;-66
2021/12/25 03:20:44;;;;;;;0.90;0.60;;;;;;;-4.42;100.00;-19051.47;5045260;28;20443;-65
2021/12/25 03:23:12;;;;;;;1.10;0.80;;;;;;;-4.44;100.00;-19050.94;5033870;28;20271;-65
2021/12/25 03:25:38;;;;;;;0.90;0.70;;;;;;;-4.42;100.00;-19051.34;5049946;28;20110;-65
2021/12/25 03:28:04;;;;;;;1.50;0.70;;;;;;;-4.43;100.00;-19051.09;5042037;28;20360;-65
2021/12/25 03:30:35;;;;;;;1.50;0.90;;;;;;;-4.43;100.00;-19051.09;5048379;28;20278;-65
2021/12/25 03:33:02;;;;;;;1.60;0.85;;;;;;;-4.46;100.00;-19050.28;5047574;28;20037;-65
2021/12/25 03:35:27;;;;;;;1.07;0.80;;;;;;;-4.48;100.00;-19049.75;5057989;28;20028;-65
2021/12/25 03:37:53;;;;;;;1.50;0.90;;;;;;;-4.53;100.00;-19048.41;5043072;28;20279;-65
2021/12/25 03:40:18;;;;;;;0.73;0.70;;;;;;;-4.50;100.00;-19049.34;5041298;28;20025;-66
2021/12/25 03:42:43;;;;;;;3.10;0.80;;;;;;;-4.52;100.00;-19048.69;5056672;28;20251;-65
2021/12/25 03:45:09;;;;;;;2.07;0.70;;;;;;;-4.54;100.00;-19048.13;5050342;28;20020;-65
2021/12/25 03:47:37;;;;;;;1.30;1.00;;;;;;;-4.51;100.00;-19048.94;5047763;28;20056;-65
2021/12/25 03:58:22;;;;;;;2.50;1.10;;;;;;;-4.58;100.00;-19047.06;5045193;28;20274;-65
2021/12/25 04:00:49;;;;;;;2.97;0.90;;;;;;;-4.59;100.00;-19046.94;5044167;28;20862;-65
2021/12/25 04:03:24;;;;;;;1.03;0.77;;;;;;;-4.63;100.00;-19045.72;5040454;28;20099;-66
2021/12/25 04:05:49;;;;;;;2.00;1.13;;;;;;;-4.57;100.00;-19047.34;5043416;28;20295;-65
2021/12/25 04:08:19;;;;;;;1.27;0.97;;;;;;;-4.59;100.00;-19046.81;5042311;28;20294;-65
2021/12/25 04:10:47;;;;;;;2.60;0.90;;;;;;;-4.65;100.00;-19045.19;5044306;28;20032;-65
2021/12/25 04:13:15;;;;;;;1.43;0.90;;;;;;;-4.63;100.00;-19045.72;5042661;28;20701;-65
2021/12/25 04:15:41;;;;;;;3.90;1.00;;;;;;;-4.64;100.00;-19045.47;5040165;28;20639;-65
2021/12/25 04:18:07;;;;;;;2.30;0.90;;;;;;;-4.70;100.00;-19044.00;5050434;28;20321;-65
2021/12/25 04:20:34;;;;;;;0.80;0.70;;;;;;;-4.70;100.00;-19043.88;5045128;28;20641;-65
2021/12/25 04:23:04;;;;;;;1.37;0.73;;;;;;;-4.76;100.00;-19042.53;5046700;28;20280;-65
2021/12/25 04:25:34;;;;;;;1.30;0.80;;;;;;;-4.78;100.00;-19041.84;5043775;28;20286;-65
2021/12/25 04:28:17;;;;;;;1.37;0.80;;;;;;;-4.80;100.00;-19041.47;5041976;28;20298;-65
2021/12/25 05:05:25;;;;;;;1.23;0.80;;;;;;;-5.11;100.00;-19033.16;5042863;28;20877;-66
2021/12/25 05:07:51;;;;;;;1.77;0.70;;;;;;;-5.14;100.00;-19032.38;5042382;28;20025;-64
2021/12/25 05:10:16;;;;;;;1.60;0.90;;;;;;;-5.14;100.00;-19032.38;5045188;28;20035;-65
2021/12/25 05:12:42;;;;;;;1.07;0.73;;;;;;;-5.09;100.00;-19033.72;5050035;28;20255;-66
2021/12/25 05:15:08;;;;;;;1.17;0.80;;;;;;;-5.05;100.00;-19034.78;5035012;28;20028;-66
2021/12/25 05:17:33;;;;;;;2.17;0.93;;;;;;;-5.01;100.00;-19035.84;5041427;28;20056;-66
2021/12/25 05:19:59;;;;;;;1.03;0.83;;;;;;;-4.99;100.00;-19036.38;5044451;28;20267;-66
2021/12/25 05:22:25;;;;;;;1.27;0.80;;;;;;;-4.96;100.00;-19037.19;5042456;28;20033;-66
2021/12/25 05:24:51;;;;;;;0.97;0.80;;;;;;;-4.99;100.00;-19036.25;5044351;28;20127;-66
2021/12/25 05:27:17;;;;;;;1.23;1.03;;;;;;;-5.04;100.00;-19035.19;5045966;28;20033;-66
2021/12/25 05:29:46;;;;;;;1.03;0.70;;;;;;;-5.05;100.00;-19034.78;5059404;28;20379;-66
2021/12/25 05:32:13;;;;;;;3.83;0.90;;;;;;;-5.06;100.00;-19034.50;5047018;28;20026;-66
2021/12/25 05:34:39;;;;;;;4.10;0.90;;;;;;;-5.06;100.00;-19034.50;5044228;28;20283;-66
2021/12/25 05:37:04;;;;;;;0.80;0.70;;;;;;;-5.07;100.00;-19034.38;5041140;28;20283;-66
2021/12/25 05:39:30;;;;;;;0.87;0.70;;;;;;;-5.00;100.00;-19036.13;5051588;28;20439;-66
2021/12/25 05:41:57;;;;;;;3.10;0.73;;;;;;;-5.05;100.00;-19034.78;5053360;28;20116;-66
2021/12/25 05:44:22;;;;;;;1.57;0.80;;;;;;;-5.08;100.00;-19033.97;5045910;28;20044;-66
2021/12/25 05:46:48;;;;;;;0.90;0.80;;;;;;;-5.00;100.00;-19036.13;5044604;28;20259;-66
2021/12/25 05:49:13;;;;;;;2.03;0.80;;;;;;;-4.99;100.00;-19036.25;5045271;28;20056;-66
2021/12/25 05:51:39;;;;;;;1.00;0.70;;;;;;;-4.96;100.00;-19037.06;5047694;28;20274;-66
2021/12/25 05:54:06;;;;;;;1.10;0.87;;;;;;;-4.98;100.00;-19036.66;5043819;28;20499;-66
2021/12/25 05:56:31;;;;;;;3.83;0.93;;;;;;;-4.96;100.00;-19037.19;5049829;28;20294;-66
2021/12/25 05:58:56;;;;;;;1.13;0.90;;;;;;;-4.96;100.00;-19037.19;5047467;28;20271;-66
2021/12/25 06:01:22;;;;;;;3.20;0.80;;;;;;;-4.99;100.00;-19036.38;5055412;28;20489;-66
2021/12/25 06:03:48;;;;;;;0.83;0.67;;;;;;;-4.99;100.00;-19036.38;5041992;28;20312;-66
2021/12/25 06:06:13;;;;;;;1.97;0.90;;;;;;;-5.06;100.00;-19034.66;5046682;28;20025;-66
2021/12/25 06:08:39;;;;;;;1.00;0.80;;;;;;;-5.08;100.00;-19034.09;5032315;28;20025;-66
2021/12/25 06:11:04;;;;;;;3.17;1.10;;;;;;;-5.04;100.00;-19035.19;5046421;28;20033;-66
2021/12/25 06:13:31;;;;;;;0.97;0.80;;;;;;;-5.11;100.00;-19033.16;5052534;28;20566;-66
2021/12/25 06:15:57;;;;;;;2.77;0.90;;;;;;;-5.18;100.00;-19031.44;5045912;28;20555;-66
2021/12/25 06:18:22;;;;;;;0.90;0.70;;;;;;;-5.20;100.00;-19030.78;5033369;28;20803;-66
2021/12/25 06:20:48;;;;;;;0.93;0.70;;;;;;;-5.20;100.00;-19030.78;5045519;28;20274;-66
2021/12/25 06:23:13;;;;;;;3.40;0.83;;;;;;;-5.12;100.00;-19032.91;5046740;28;20035;-66
2021/12/25 06:25:39;;;;;;;4.10;1.47;;;;;;;-5.16;100.00;-19031.84;5048860;28;20612;-66
2021/12/25 06:28:05;;;;;;;1.80;0.90;;;;;;;-5.21;100.00;-19030.50;5049144;28;20028;-66
2021/12/25 06:30:30;;;;;;;3.10;1.30;;;;;;;-5.21;100.00;-19030.50;5049174;28;20024;-66
2021/12/25 06:32:56;;;;;;;2.77;0.90;;;;;;;-5.21;100.00;-19030.50;5048956;28;20108;-66
2021/12/25 06:35:21;;;;;;;2.90;1.20;;;;;;;-5.24;100.00;-19029.84;5051776;28;20036;-66
2021/12/25 06:37:47;;;;;;;2.00;1.07;;;;;;;-5.33;100.00;-19027.56;5041211;28;20021;-66
2021/12/25 06:40:19;;;;;;;2.37;0.80;;;;;;;-5.39;100.00;-19025.94;5052294;28;20072;-66
2021/12/25 06:42:47;;;;;;;2.40;1.00;;;;;;;-5.34;100.00;-19027.16;5045927;28;20171;-66
2021/12/25 06:45:13;;;;;;;2.57;1.30;;;;;;;-5.31;100.00;-19027.97;5048785;28;20263;-66
2021/12/25 06:47:39;;;;;;;2.80;0.90;;;;;;;-5.33;100.00;-19027.56;5045647;28;20878;-66
2021/12/25 06:50:09;;;;;;;2.07;0.90;;;;;;;-5.40;100.00;-19025.69;5044457;28;20500;-66
2021/12/25 06:52:36;;;;;;;2.00;1.10;;;;;;;-5.37;100.00;-19026.50;5041583;28;20544;-66
2021/12/25 06:55:03;;;;;;;2.27;0.90;;;;;;;-5.35;100.00;-19027.03;5045711;28;20278;-66
2021/12/25 06:57:29;;;;;;;3.43;1.57;;;;;;;-5.38;100.00;-19026.22;5042977;28;20318;-66
2021/12/25 06:59:54;;;;;;;3.33;1.27;;;;;;;-5.40;100.00;-19025.56;5044513;28;20267;-66
2021/12/25 07:02:20;;;;;;;2.10;0.90;;;;;;;-5.42;100.00;-19025.16;5046295;28;20021;-66
2021/12/25 07:04:45;;;;;;;2.47;1.30;;;;;;;-5.46;100.00;-19024.06;5044528;28;20186;-66
2021/12/25 07:07:11;;;;;;;2.70;1.10;;;;;;;-5.53;100.00;-19022.06;5050905;28;20366;-66
2021/12/25 07:09:36;;;;;;;2.60;1.03;;;;;;;-5.58;100.00;-19020.88;5049150;28;20647;-66
2021/12/25 07:12:02;;;;;;;3.50;1.83;;;;;;;-5.59;100.00;-19020.59;5048889;28;20037;-66
2021/12/25 07:14:28;;;;;;;1.37;0.83;;;;;;;-5.67;100.00;-19018.47;5051836;28;20032;-66
2021/12/25 07:16:53;;;;;;;1.80;0.93;;;;;;;-5.69;100.00;-19017.94;5047242;28;20289;-66
2021/12/25 07:19:19;;;;;;;1.53;0.80;;;;;;;-5.71;100.00;-19017.41;5049778;28;20458;-66
2021/12/25 07:21:45;;;;;;;2.13;0.80;;;;;;;-5.70;100.00;-19017.66;5062039;28;20040;-66
2021/12/25 07:24:11;;;;;;;0.80;0.73;;;;;;;-5.72;100.00;-19017.13;5036699;28;20020;-66
2021/12/25 07:26:38;;;;;;;1.50;0.90;;;;;;;-5.74;100.00;-19016.59;5044919;28;20275;-66
2021/12/25 07:29:03;;;;;;;2.57;1.60;;;;;;;-5.78;100.00;-19015.53;5040595;28;20660;-66
2021/12/25 07:31:29;;;;;;;1.97;1.00;;;;;;;-5.76;100.00;-19016.06;5061075;28;20275;-66
2021/12/25 07:33:54;;;;;;;3.77;1.27;;;;;;;-5.80;100.00;-19015.13;5033360;28;20040;-66
2021/12/25 07:36:20;;;;;;;2.93;1.10;;;;;;;-5.78;100.00;-19015.53;5051399;28;20271;-66
2021/12/25 07:38:45;;;;;;;5.17;1.53;;;;;;;-5.79;100.00;-19015.38;5044758;28;20029;-66
2021/12/25 07:41:11;;;;;;;1.80;1.10;;;;;;;-5.77;100.00;-19015.78;5045036;28;20633;-66
2021/12/25 07:43:36;;;;;;;1.97;1.10;;;;;;;-5.79;100.00;-19015.25;5037001;28;20033;-66
2021/12/25 07:46:03;;;;;;;3.37;1.10;;;;;;;-5.83;100.00;-19014.31;5052884;28;20025;-66
2021/12/25 07:48:29;;;;;;;2.93;1.00;;;;;;;-5.85;100.00;-19013.66;5038883;28;20048;-66
2021/12/25 07:50:55;;;;;;;4.87;1.63;;;;;;;-5.84;100.00;-19013.91;5041228;28;20633;-66
2021/12/25 07:53:21;;;;;;;2.57;1.30;;;;;;;-5.82;100.00;-19014.59;5034433;28;20029;-66
2021/12/25 07:55:47;;;;;;;4.23;1.63;;;;;;;-5.85;100.00;-19013.78;5042364;28;20283;-66
2021/12/25 07:58:14;;;;;;;5.43;1.67;;;;;;;-5.83;100.00;-19014.19;5041463;28;20094;-67
2021/12/25 08:00:40;;;;;;;4.13;1.63;;;;;;;-5.80;100.00;-19015.13;5042895;28;20305;-66
2021/12/25 08:03:06;;;;;;;1.73;1.00;;;;;;;-5.79;100.00;-19015.25;5038351;28;20307;-66
2021/12/25 08:05:32;;;;;;;3.80;1.20;;;;;;;-5.64;100.00;-19019.28;5043408;28;20049;-66
2021/12/25 08:07:58;;;;;;;3.87;1.30;;;;;;;-5.49;100.00;-19023.28;5038998;28;20543;-66
2021/12/25 08:10:23;;;;;;;1.33;0.83;;;;;;;-5.31;100.00;-19027.97;5045890;28;20024;-66
2021/12/25 08:12:51;;;;;;;2.20;1.00;;;;;;;-5.26;100.00;-19029.16;5049358;28;20098;-66
2021/12/25 08:15:19;;;;;;;2.40;1.13;;;;;;;-5.38;100.00;-19026.22;5048628;28;20425;-66
2021/12/25 08:17:44;;;;;;;2.07;1.10;;;;;;;-5.46;100.00;-19024.06;5050433;28;20275;-66
2021/12/25 08:20:10;;;;;;;3.20;1.10;;;;;;;-5.56;100.00;-19021.41;5052202;28;20340;-66
2021/12/25 08:22:37;;;;;;;3.63;1.20;;;;;;;-5.58;100.00;-19020.88;5050273;28;20036;-66
2021/12/25 08:25:04;;;;;;;3.67;1.00;;;;;;;-5.60;100.00;-19020.47;5031066;28;20272;-66
2021/12/25 08:27:30;;;;;;;4.83;2.37;;;;;;;-5.60;100.00;-19020.34;5035021;28;20386;-66
2021/12/25 08:29:55;;;;;;;2.63;1.43;;;;;;;-5.60;100.00;-19020.47;5030481;28;20942;-66
2021/12/25 08:32:21;;;;;;;3.00;1.30;;;;;;;-5.54;100.00;-19021.94;5048489;28;20059;-66
2021/12/25 08:34:46;;;;;;;3.30;1.53;;;;;;;-5.50;100.00;-19023.00;5043240;28;20028;-66
2021/12/25 08:37:12;;;;;;;2.60;1.30;;;;;;;-5.45;100.00;-19024.22;5043426;28;20110;-66
2021/12/25 08:39:38;;;;;;;2.57;1.40;;;;;;;-5.02;100.00;-19035.56;5041821;28;20039;-66
2021/12/25 08:42:05;;;;;;;2.90;1.23;;;;;;;-4.21;100.00;-19056.81;5039719;28;20041;-66
2021/12/25 08:44:40;;;;;;;3.47;1.03;;;;;;;-4.04;100.00;-19061.22;5043775;28;20271;-67
2021/12/25 08:47:11;;;;;;;2.70;1.53;;;;;;;-3.98;100.00;-19062.84;5039871;28;20354;-66
2021/12/25 08:49:40;;;;;;;4.17;1.40;;;;;;;-3.98;100.00;-19062.84;5028744;28;20330;-66
2021/12/25 08:52:09;;;;;;;2.83;1.40;;;;;;;-3.58;100.00;-19073.50;5039274;28;20271;-66
2021/12/25 08:54:35;;;;;;;1.77;1.00;;;;;;;-3.11;100.00;-19085.78;5041333;28;20267;-66
2021/12/25 08:57:02;;;;;;;2.70;1.20;;;;;;;-3.14;100.00;-19084.88;5041632;28;20283;-67
2021/12/25 08:59:27;;;;;;;2.50;1.13;;;;;;;-3.63;100.00;-19072.19;5042788;28;20630;-66
2021/12/25 09:01:54;;;;;;;2.57;1.50;;;;;;;-4.17;100.00;-19058.03;5041308;28;20343;-66
2021/12/25 09:04:20;;;;;;;3.20;1.40;;;;;;;-4.35;100.00;-19053.22;5037964;28;20260;-66
2021/12/25 09:06:45;;;;;;;2.67;1.57;;;;;;;-4.42;100.00;-19051.34;5043736;28;20344;-66
2021/12/25 09:09:11;;;;;;;2.23;1.10;;;;;;;-4.46;100.00;-19050.28;5041803;28;20029;-66
2021/12/25 09:11:41;;;;;;;4.17;1.50;;;;;;;-4.48;100.00;-19049.88;5042886;28;20049;-66
2021/12/25 09:14:08;;;;;;;3.13;1.27;;;;;;;-4.49;100.00;-19049.47;5035863;28;20706;-66
2021/12/25 09:16:33;;;;;;;4.27;1.40;;;;;;;-4.50;100.00;-19049.22;5043702;28;20286;-66
2021/12/25 09:18:59;;;;;;;2.50;1.37;;;;;;;-4.41;100.00;-19051.63;5036175;28;20267;-66
2021/12/25 09:21:25;;;;;;;3.60;1.80;;;;;;;-4.42;100.00;-19051.34;5042100;28;20032;-66
2021/12/25 09:23:50;;;;;;;1.67;1.00;;;;;;;-4.39;100.00;-19052.16;5042972;28;20451;-66
2021/12/25 09:26:17;;;;;;;6.10;1.17;;;;;;;-4.42;100.00;-19051.34;5043258;28;20248;-66
2021/12/25 09:28:43;;;;;;;5.20;1.10;;;;;;;-4.39;100.00;-19052.16;5040888;28;20033;-66
2021/12/25 09:31:09;;;;;;;1.93;1.13;;;;;;;-4.32;100.00;-19053.88;5043747;28;20532;-66
2021/12/25 09:33:34;;;;;;;4.27;1.10;;;;;;;-4.26;100.00;-19055.50;5042473;28;20856;-66
2021/12/25 09:36:02;;;;;;;2.67;1.00;;;;;;;-4.23;100.00;-19056.44;5038863;28;20347;-66
2021/12/25 09:38:29;;;;;;;1.57;0.93;;;;;;;-4.21;100.00;-19056.97;5040038;28;20561;-66
2021/12/25 09:40:56;;;;;;;2.87;1.20;;;;;;;-4.21;100.00;-19056.97;5042943;28;20734;-66
2021/12/25 09:43:22;;;;;;;3.27;1.00;;;;;;;-4.13;100.00;-19059.09;5033598;28;20296;-66
2021/12/25 09:45:48;;;;;;;2.40;1.20;;;;;;;-4.11;100.00;-19059.38;5043689;28;20290;-66
2021/12/25 09:48:14;;;;;;;2.20;1.00;;;;;;;-4.02;100.00;-19061.75;5041777;28;20113;-66
2021/12/25 09:50:39;;;;;;;2.40;1.07;;;;;;;-3.96;100.00;-19063.38;5043140;28;20303;-66
2021/12/25 09:53:12;;;;;;;2.23;1.07;;;;;;;-3.92;100.00;-19064.44;5043064;28;20359;-66
2021/12/25 09:55:38;;;;;;;4.17;1.20;;;;;;;-3.90;100.00;-19064.97;5042402;28;20046;-66
2021/12/25 09:58:05;;;;;;;3.30;1.00;;;;;;;-3.81;100.00;-19067.38;5043304;28;20411;-66
2021/12/25 10:00:35;;;;;;;3.90;1.00;;;;;;;-3.80;100.00;-19067.50;5042575;28;20929;-66
2021/12/25 10:03:01;;;;;;;1.47;0.90;;;;;;;-3.70;100.00;-19070.31;5043236;28;20272;-66
2021/12/25 10:05:31;;;;;;;2.10;1.13;;;;;;;-3.67;100.00;-19070.97;5042405;28;20828;-66
2021/12/25 10:08:11;;;;;;;4.27;1.00;;;;;;;-3.54;100.00;-19074.59;5041742;28;20347;-66
2021/12/25 10:10:41;;;;;;;2.30;1.00;;;;;;;-3.56;100.00;-19074.06;5042421;28;20566;-66
2021/12/25 10:13:41;;;;;;;4.83;1.20;;;;;;;-3.54;100.00;-19074.44;5041914;28;20282;-66
2021/12/25 10:16:26;;;;;;;6.67;1.00;;;;;;;-3.48;100.00;-19075.91;4959319;28;21033;-66
2021/12/25 10:18:53;;;;;;;2.57;1.13;;;;;;;-3.46;100.00;-19076.44;4963126;28;20885;-66
2021/12/25 10:21:27;;;;;;;2.63;1.00;;;;;;;-3.46;100.00;-19076.44;4968519;28;20270;-66
2021/12/25 10:24:15;;;;;;;1.43;0.97;;;;;;;-3.39;100.00;-19078.31;4964412;28;20513;-66
2021/12/25 10:26:44;;;;;;;1.10;0.80;;;;;;;-3.41;100.00;-19077.78;4965262;28;20902;-66
2021/12/25 10:29:15;;;;;;;0.93;0.80;;;;;;;-3.34;100.00;-19079.66;4968754;28;20282;-66
2021/12/25 10:31:41;;;;;;;2.05;0.80;;;;;;;-3.38;100.00;-19078.59;4968407;28;20372;-66
2021/12/25 10:34:15;;;;;;;1.43;0.93;;;;;;;-3.28;100.00;-19081.25;4958390;28;20141;-66
2021/12/25 10:36:41;;;;;;;1.83;1.00;;;;;;;-3.33;100.00;-19080.06;4964177;28;20066;-66
2021/12/25 10:39:08;;;;;;;1.57;0.70;;;;;;;-3.26;100.00;-19081.78;4971350;28;20328;-66
2021/12/25 10:41:37;;;;;;;1.77;1.00;;;;;;;-3.21;100.00;-19083.00;4965113;28;20050;-66
2021/12/25 10:44:16;;;;;;;1.73;1.10;;;;;;;-3.24;100.00;-19082.31;4966027;28;20345;-66
2021/12/25 10:47:05;;;;;;;1.87;0.80;;;;;;;-3.16;100.00;-19084.47;4962981;28;20274;-67
2021/12/25 10:49:58;;;;;;;1.00;0.70;;;;;;;-3.17;100.00;-19084.06;4969195;28;20274;-66
2021/12/25 10:52:39;;;;;;;2.63;0.97;;;;;;;-3.11;100.00;-19085.66;5000808;28;20315;-66
2021/12/25 10:55:15;;;;;;;1.08;0.90;;;;;;;-3.14;100.00;-19085.00;5053548;28;20344;-66
2021/12/25 10:57:45;;;;;;;1.57;0.90;;;;;;;-3.09;100.00;-19086.31;5050152;28;20386;-67
2021/12/25 11:00:12;;;;;;;0.90;0.80;;;;;;;-3.00;100.00;-19088.72;5044667;28;20283;-67
2021/12/25 11:02:43;;;;;;;4.07;0.80;;;;;;;-2.99;100.00;-19088.88;5054846;28;20275;-66
2021/12/25 11:05:23;;;;;;;0.93;0.70;;;;;;;-3.01;100.00;-19088.47;5049973;28;20787;-66
2021/12/25 11:08:07;;;;;;;1.80;0.70;;;;;;;-2.98;100.00;-19089.25;5042688;28;20329;-66
2021/12/25 11:10:49;;;;;;;1.40;0.90;;;;;;;-2.97;100.00;-19089.53;5053624;28;20371;-66
2021/12/25 11:13:26;;;;;;;1.27;0.93;;;;;;;-3.00;100.00;-19088.72;5038208;28;20551;-66
2021/12/25 11:16:01;;;;;;;2.43;1.03;;;;;;;-3.00;100.00;-19088.72;5030557;28;20030;-66
2021/12/25 11:18:27;;;;;;;2.67;1.23;;;;;;;-2.99;100.00;-19089.00;5045804;28;20270;-66
2021/12/25 11:20:52;;;;;;;3.23;0.70;;;;;;;-2.90;100.00;-19091.13;5044124;28;20340;-67
2021/12/25 11:23:20;;;;;;;2.10;1.00;;;;;;;-2.87;100.00;-19092.06;5034129;28;20028;-66
2021/12/25 11:25:46;;;;;;;1.37;0.80;;;;;;;-2.88;100.00;-19091.66;5020498;28;20213;-66
2021/12/25 11:28:13;;;;;;;0.77;0.60;;;;;;;-2.87;100.00;-19091.94;5033387;28;20298;-66
2021/12/25 11:30:42;;;;;;;3.13;1.10;;;;;;;-2.82;100.00;-19093.25;5034316;28;20060;-66
2021/12/25 11:33:10;;;;;;;1.33;0.90;;;;;;;-2.84;100.00;-19092.72;5032764;28;20337;-66
2021/12/25 11:35:36;;;;;;;2.70;1.07;;;;;;;-2.81;100.00;-19093.53;5033968;28;20802;-66
2021/12/25 11:38:04;;;;;;;2.73;1.17;;;;;;;-2.83;100.00;-19093.00;5040009;28;20845;-67
2021/12/25 11:40:34;;;;;;;1.70;1.00;;;;;;;-2.88;100.00;-19091.66;5046391;28;20270;-66
2021/12/25 11:43:02;;;;;;;3.63;1.10;;;;;;;-2.88;100.00;-19091.66;5044551;28;20435;-66
2021/12/25 11:45:33;;;;;;;3.17;1.00;;;;;;;-2.88;100.00;-19091.81;5044805;28;20274;-67
2021/12/25 11:48:10;;;;;;;0.90;0.70;;;;;;;-2.87;100.00;-19091.94;5036826;28;20267;-67
2021/12/25 11:50:41;;;;;;;4.70;0.90;;;;;;;-2.87;100.00;-19091.94;5038878;28;20286;-66
2021/12/25 11:53:26;;;;;;;1.93;1.00;;;;;;;-2.83;100.00;-19093.13;5042243;28;20352;-67
2021/12/25 11:58:42;;;;;;;6.33;1.50;;;;;;;-2.73;100.00;-19095.66;5040859;28;20379;-67
2021/12/25 12:01:22;;;;;;;0.73;0.70;;;;;;;-2.70;100.00;-19096.47;5049376;28;20345;-67
2021/12/25 12:03:54;;;;;;;1.93;0.80;;;;;;;-2.74;100.00;-19095.53;5040006;28;20305;-67
2021/12/25 12:06:40;;;;;;;3.38;1.20;;;;;;;-2.75;100.00;-19095.13;5045261;28;20278;-67
2021/12/25 12:09:09;;;;;;;2.47;0.93;;;;;;;-2.70;100.00;-19096.47;5039480;28;20051;-67
2021/12/25 12:11:37;;;;;;;4.30;1.00;;;;;;;-2.71;100.00;-19096.34;5049490;28;20275;-66
2021/12/25 12:14:27;;;;;;;3.03;1.20;;;;;;;-2.69;100.00;-19096.72;5042623;28;20589;-67
2021/12/25 12:16:55;;;;;;;12.53;1.20;;;;;;;-2.67;100.00;-19097.25;5047507;28;20306;-67
2021/12/25 12:19:30;;;;;;;5.50;1.60;;;;;;;-2.68;100.00;-19097.00;5036145;28;20751;-67
2021/12/25 12:21:57;;;;;;;4.40;0.90;;;;;;;-2.70;100.00;-19096.47;5045802;28;20278;-67
2021/12/25 12:24:44;;;;;;;3.87;1.63;;;;;;;-2.64;100.00;-19098.06;5047471;28;20491;-67
2021/12/25 12:27:09;;;;;;;4.23;1.30;;;;;;;-2.62;100.00;-19098.59;5033027;28;20407;-67
2021/12/25 12:29:51;;;;;;;1.77;0.90;;;;;;;-2.67;100.00;-19097.25;5035465;28;20279;-67
2021/12/25 12:32:19;;;;;;;3.72;1.33;;;;;;;-2.66;100.00;-19097.53;5032806;28;20068;-67
2021/12/25 12:34:47;;;;;;;1.93;0.70;;;;;;;-2.66;100.00;-19097.53;5040886;28;20238;-67
2021/12/25 12:37:18;;;;;;;3.17;1.23;;;;;;;-2.68;100.00;-19097.00;5038587;28;20296;-67
2021/12/25 12:40:05;;;;;;;4.53;1.20;;;;;;;-2.67;100.00;-19097.25;5040928;28;20302;-67